createdAt,value
2019-03-06T00:03:13.179Z,85.98
2019-03-06T00:08:18.222Z,87.06
2019-03-06T00:13:23.174Z,87.65
2019-03-06T00:18:28.190Z,87.82
2019-03-06T00:23:33.220Z,88.24
2019-03-06T00:28:38.209Z,88.71
2019-03-06T00:33:43.551Z,88.37
2019-03-06T00:38:48.738Z,88.51
2019-03-06T00:43:53.743Z,88.47
2019-03-06T00:48:58.768Z,89.39
2019-03-06T00:54:04.046Z,89.58
2019-03-06T00:59:09.363Z,89.23
2019-03-06T01:04:14.368Z,89.52
2019-03-06T01:09:19.418Z,89.48
2019-03-06T01:14:24.872Z,89.69
2019-03-06T01:19:29.884Z,90.63
2019-03-06T01:24:34.914Z,90.86
2019-03-06T01:29:39.985Z,90.65
2019-03-06T01:35:12.864Z,90.51
2019-03-06T01:40:30.389Z,90.80
2019-03-06T01:45:35.435Z,91.36
2019-03-06T01:50:40.516Z,91.25
2019-03-06T01:55:45.500Z,90.98
2019-03-06T02:00:52.167Z,90.76
2019-03-06T02:05:57.291Z,90.67
2019-03-06T02:11:02.388Z,90.73
2019-03-06T02:16:06.832Z,90.73
2019-03-06T02:21:11.710Z,90.77
2019-03-06T02:26:16.687Z,90.69
2019-03-06T02:31:22.016Z,90.68
2019-03-06T02:36:26.975Z,90.75
2019-03-06T02:41:31.985Z,90.73
2019-03-06T02:46:36.977Z,90.70
2019-03-06T02:51:42.050Z,90.58
2019-03-06T02:56:46.982Z,90.79
2019-03-06T03:02:17.037Z,91.33
2019-03-06T03:07:22.063Z,91.65
2019-03-06T03:12:27.067Z,91.81
2019-03-06T03:17:32.012Z,91.70
2019-03-06T03:22:36.970Z,91.69
2019-03-06T03:27:41.952Z,91.57
2019-03-06T03:32:46.978Z,91.22
2019-03-06T03:37:52.252Z,91.12
2019-03-06T03:42:57.280Z,90.90
2019-03-06T03:48:02.251Z,90.97
2019-03-06T03:53:07.279Z,90.97
2019-03-06T03:58:12.258Z,91.11
2019-03-06T04:03:17.214Z,91.40
2019-03-06T04:08:22.603Z,91.31
2019-03-06T04:13:27.884Z,91.28
2019-03-06T04:18:32.827Z,91.29
2019-03-06T04:23:38.860Z,91.10
2019-03-06T04:28:43.845Z,91.15
2019-03-06T04:33:49.230Z,91.10
2019-03-06T04:38:54.279Z,90.98
2019-03-06T04:43:59.671Z,91.08
2019-03-06T04:49:04.722Z,91.05
2019-03-06T04:54:09.987Z,91.34
2019-03-06T04:59:14.890Z,91.69
2019-03-06T05:04:20.539Z,92.12
2019-03-06T05:09:25.594Z,91.74
2019-03-06T05:14:30.889Z,92.07
2019-03-06T05:19:36.335Z,92.43
2019-03-06T05:24:41.539Z,92.76
2019-03-06T05:29:46.599Z,93.05
2019-03-06T05:34:52.111Z,93.24
2019-03-06T05:39:57.095Z,93.40
2019-03-06T05:45:02.567Z,93.53
2019-03-06T05:50:07.624Z,93.51
2019-03-06T05:55:12.600Z,93.71
2019-03-06T06:00:20.130Z,94.20
2019-03-06T06:05:25.410Z,94.46
2019-03-06T06:10:32.954Z,94.31
2019-03-06T06:15:37.995Z,93.89
2019-03-06T06:20:43.089Z,93.60
2019-03-06T06:25:48.173Z,93.50
2019-03-06T06:30:53.164Z,93.20
2019-03-06T06:35:58.353Z,93.34
2019-03-06T06:41:03.403Z,93.03
2019-03-06T06:46:08.297Z,92.70
2019-03-06T06:51:53.123Z,92.44
2019-03-06T06:57:26.134Z,92.28
2019-03-06T07:03:35.601Z,92.16
2019-03-06T07:08:58.341Z,92.05
2019-03-06T07:14:16.263Z,91.79
2019-03-06T07:19:39.194Z,91.49
2019-03-06T07:25:09.487Z,91.18
2019-03-06T07:30:29.716Z,90.63
2019-03-06T07:36:16.748Z,89.90
2019-03-06T07:41:39.563Z,89.01
2019-03-06T07:47:02.713Z,88.46
2019-03-06T07:52:13.295Z,87.49
2019-03-06T07:57:26.485Z,86.99
2019-03-06T08:02:55.743Z,86.16
2019-03-06T08:08:00.737Z,85.64
2019-03-06T08:13:24.375Z,85.11
2019-03-06T08:19:00.635Z,84.23
2019-03-06T08:24:23.961Z,83.06
2019-03-06T08:29:30.537Z,81.85
2019-03-06T08:34:35.630Z,80.68
2019-03-06T08:39:40.629Z,80.02
2019-03-06T08:44:45.783Z,78.37
2019-03-06T08:50:02.997Z,78.43
2019-03-06T08:55:17.508Z,78.89
2019-03-06T09:00:57.010Z,78.63
2019-03-06T09:06:12.609Z,77.71
2019-03-06T09:11:35.189Z,76.26
2019-03-06T09:16:59.134Z,74.60
2019-03-06T09:22:12.922Z,72.16
2019-03-06T09:27:40.297Z,69.95
2019-03-06T09:33:06.019Z,67.06
2019-03-06T09:38:33.002Z,64.29
2019-03-06T09:43:44.811Z,58.88
2019-03-06T09:48:54.739Z,51.13
2019-03-06T09:54:21.677Z,44.63
2019-03-06T09:59:41.393Z,41.22
2019-03-06T10:05:05.372Z,38.08
2019-03-06T10:10:50.444Z,38.38
2019-03-06T10:15:55.877Z,41.74
2019-03-06T10:21:01.239Z,43.60
2019-03-06T10:26:06.341Z,40.45
2019-03-06T10:31:12.678Z,40.28
2019-03-06T10:36:18.096Z,46.04
2019-03-06T10:41:22.127Z,49.57
2019-03-06T10:46:26.083Z,45.07
2019-03-06T10:51:31.085Z,42.93
2019-03-06T10:56:36.233Z,45.03
2019-03-06T11:01:40.320Z,47.97
2019-03-06T11:06:44.292Z,48.70
2019-03-06T11:11:48.645Z,49.11
2019-03-06T11:16:52.631Z,49.06
2019-03-06T11:21:56.880Z,50.70
2019-03-06T11:27:02.525Z,52.17
2019-03-06T11:32:06.611Z,54.89
2019-03-06T11:37:10.759Z,55.53
2019-03-06T11:42:14.995Z,55.47
2019-03-06T11:47:19.108Z,55.07
2019-03-06T11:52:23.151Z,54.70
2019-03-06T11:57:27.132Z,53.26
2019-03-06T12:02:31.227Z,50.96
2019-03-06T12:07:35.237Z,47.17
2019-03-06T12:12:39.221Z,44.61
2019-03-06T12:17:43.168Z,41.08
2019-03-06T12:22:47.326Z,38.68
2019-03-06T12:27:53.170Z,37.59
2019-03-06T12:32:57.873Z,38.41
2019-03-06T12:38:01.875Z,39.49
2019-03-06T12:43:07.005Z,37.15
2019-03-06T12:48:10.884Z,32.67
2019-03-06T12:53:14.765Z,30.54
2019-03-06T12:58:18.717Z,31.03
2019-03-06T13:03:22.683Z,31.35
2019-03-06T13:08:26.595Z,31.69
2019-03-06T13:13:35.435Z,31.48
2019-03-06T13:18:36.763Z,31.53
2019-03-06T13:23:41.000Z,31.18
2019-03-06T13:28:44.982Z,30.36
2019-03-06T13:34:20.291Z,31.54
2019-03-06T13:39:31.755Z,32.29
2019-03-06T13:44:35.705Z,33.34
2019-03-06T13:49:39.706Z,34.16
2019-03-06T13:54:43.743Z,35.08
2019-03-06T13:59:47.771Z,36.66
2019-03-06T14:04:52.149Z,38.36
2019-03-06T14:09:56.209Z,39.51
2019-03-06T14:15:00.318Z,41.14
2019-03-06T14:20:04.597Z,43.08
2019-03-06T14:25:08.603Z,45.45
2019-03-06T14:30:13.177Z,47.19
2019-03-06T14:35:17.830Z,48.33
2019-03-06T14:40:32.993Z,48.60
2019-03-06T14:45:37.066Z,49.68
2019-03-06T14:50:41.131Z,49.52
2019-03-06T14:55:45.866Z,49.49
2019-03-06T15:00:50.246Z,49.64
2019-03-06T15:05:54.805Z,49.49
2019-03-06T15:10:59.227Z,50.25
2019-03-06T15:16:03.487Z,50.68
2019-03-06T15:21:12.623Z,51.05
2019-03-06T15:26:16.825Z,50.87
2019-03-06T15:31:20.951Z,50.87
2019-03-06T15:36:24.904Z,50.79
2019-03-06T15:41:29.075Z,51.13
2019-03-06T15:46:33.164Z,51.24
2019-03-06T15:51:44.103Z,50.65
2019-03-06T15:56:48.337Z,51.02
2019-03-06T16:01:52.941Z,51.47
2019-03-06T16:06:57.797Z,51.95
2019-03-06T16:12:01.916Z,52.18
2019-03-06T16:17:06.253Z,52.65
2019-03-06T16:22:10.374Z,53.18
2019-03-06T16:27:14.505Z,53.56
2019-03-06T16:32:18.718Z,53.85
2019-03-06T16:37:23.306Z,54.25
2019-03-06T16:42:27.540Z,54.58
2019-03-06T16:47:31.991Z,55.09
2019-03-06T16:52:36.198Z,55.70
2019-03-06T16:57:40.511Z,56.37
2019-03-06T17:02:44.594Z,56.62
2019-03-06T17:07:48.877Z,56.96
2019-03-06T17:12:53.202Z,57.11
2019-03-06T17:17:57.250Z,57.23
2019-03-06T17:23:01.533Z,57.26
2019-03-06T17:28:05.696Z,57.37
2019-03-06T17:33:10.086Z,57.23
2019-03-06T17:38:14.472Z,57.04
2019-03-06T17:43:18.781Z,56.83
2019-03-06T17:48:23.413Z,56.67
2019-03-06T17:53:27.677Z,56.23
2019-03-06T17:58:31.997Z,56.28
2019-03-06T18:03:51.549Z,56.09
2019-03-06T18:08:55.273Z,56.12
2019-03-06T18:13:59.569Z,55.89
2019-03-06T18:19:04.715Z,56.19
2019-03-06T18:24:10.293Z,56.01
2019-03-06T18:29:16.093Z,56.13
2019-03-06T18:34:21.623Z,56.61
2019-03-06T18:39:28.687Z,57.09
2019-03-06T18:44:34.561Z,57.33
2019-03-06T18:49:39.851Z,57.43
2019-03-06T18:54:44.904Z,57.29
2019-03-06T18:59:50.013Z,56.93
2019-03-06T19:04:55.347Z,57.03
2019-03-06T19:10:01.742Z,56.91
2019-03-06T19:15:08.721Z,57.07
2019-03-06T19:20:14.235Z,56.95
2019-03-06T19:25:19.538Z,57.04
2019-03-06T19:30:26.237Z,57.49
2019-03-06T19:35:33.232Z,57.53
2019-03-06T19:40:38.789Z,57.82
2019-03-06T19:45:43.983Z,57.98
2019-03-06T19:50:49.362Z,57.97
2019-03-06T19:55:54.673Z,58.11
2019-03-06T20:01:00.143Z,58.31
2019-03-06T20:06:05.735Z,58.50
2019-03-06T20:11:11.456Z,58.82
2019-03-06T20:16:16.597Z,59.33
2019-03-06T20:21:21.615Z,59.61
2019-03-06T20:26:27.487Z,59.79
2019-03-06T20:31:33.074Z,59.88
2019-03-06T20:36:38.349Z,60.13
2019-03-06T20:41:43.707Z,60.09
2019-03-06T20:46:49.007Z,60.12
2019-03-06T20:51:54.251Z,60.14
2019-03-06T20:56:59.435Z,60.18
2019-03-06T21:02:04.632Z,60.18
2019-03-06T21:07:10.001Z,60.21
2019-03-06T21:12:15.276Z,60.19
2019-03-06T21:17:20.497Z,60.22
2019-03-06T21:22:25.742Z,60.73
2019-03-06T21:27:30.989Z,61.11
2019-03-06T21:32:36.445Z,61.47
2019-03-06T21:37:41.814Z,61.40
2019-03-06T21:42:47.072Z,61.42
2019-03-06T21:47:52.344Z,61.54
2019-03-06T21:52:57.859Z,61.50
2019-03-06T21:58:03.708Z,61.57
2019-03-06T22:03:08.860Z,61.35
2019-03-06T22:08:13.928Z,61.19
2019-03-06T22:13:19.141Z,61.29
2019-03-06T22:18:24.153Z,61.24
2019-03-06T22:23:29.651Z,61.43
2019-03-06T22:28:34.739Z,61.40
2019-03-06T22:33:40.271Z,61.65
2019-03-06T22:38:45.896Z,61.86
2019-03-06T22:43:56.015Z,61.80
2019-03-06T22:49:01.045Z,61.86
2019-03-06T22:54:06.226Z,61.65
2019-03-06T22:59:11.290Z,61.69
2019-03-06T23:04:16.444Z,61.65
2019-03-06T23:09:21.463Z,61.98
2019-03-06T23:14:31.601Z,61.83
2019-03-06T23:19:36.654Z,61.22
2019-03-06T23:24:41.763Z,61.07
2019-03-06T23:29:46.934Z,61.01
2019-03-06T23:34:51.906Z,60.92
2019-03-06T23:39:57.267Z,61.02
2019-03-06T23:45:02.685Z,60.70
2019-03-06T23:50:07.891Z,60.62
2019-03-06T23:55:12.892Z,60.57
